createdAt,value
2018-02-19T00:01:21.442Z,15.52
2018-02-19T00:03:49.071Z,16.23
2018-02-19T00:06:16.691Z,14.48
2018-02-19T00:08:45.759Z,15.30
2018-02-19T00:11:14.164Z,14.98
2018-02-19T00:13:41.761Z,15.77
2018-02-19T00:16:09.361Z,15.02
2018-02-19T00:18:36.994Z,16.20
2018-02-19T00:21:04.593Z,14.95
2018-02-19T00:23:32.229Z,14.60
2018-02-19T00:26:00.628Z,14.65
2018-02-19T00:28:28.993Z,14.75
2018-02-19T00:30:57.395Z,13.73
2018-02-19T00:33:24.995Z,13.55
2018-02-19T00:35:52.597Z,14.45
2018-02-19T00:38:20.221Z,14.87
2018-02-19T00:40:47.856Z,13.77
2018-02-19T00:43:15.457Z,14.23
2018-02-19T00:45:43.052Z,14.07
2018-02-19T00:48:10.681Z,13.90
2018-02-19T00:50:39.068Z,15.30
2018-02-19T00:53:06.704Z,15.48
2018-02-19T00:55:34.304Z,16.15
2018-02-19T00:58:01.896Z,16.25
2018-02-19T01:00:29.520Z,15.63
2018-02-19T01:02:57.149Z,16.15
2018-02-19T01:05:24.752Z,17.20
2018-02-19T01:07:52.380Z,17.52
2018-02-19T01:10:20.739Z,19.52
2018-02-19T01:12:49.101Z,17.58
2018-02-19T01:15:17.496Z,17.83
2018-02-19T01:17:45.097Z,18.73
2018-02-19T01:20:12.733Z,17.73
2018-02-19T01:22:40.331Z,17.17
2018-02-19T01:25:07.923Z,17.83
2018-02-19T01:27:35.548Z,18.00
2018-02-19T01:30:03.151Z,17.42
2018-02-19T01:32:30.775Z,17.12
2018-02-19T01:34:58.420Z,16.05
2018-02-19T01:37:26.060Z,17.62
2018-02-19T01:39:53.656Z,18.23
2018-02-19T01:42:21.252Z,19.48
2018-02-19T01:44:48.893Z,18.90
2018-02-19T01:47:16.492Z,18.73
2018-02-19T01:52:48.588Z,16.98
2018-02-19T01:55:16.226Z,16.42
2018-02-19T01:57:43.816Z,18.00
2018-02-19T02:00:12.176Z,18.60
2018-02-19T02:02:40.564Z,19.83
2018-02-19T02:05:08.159Z,19.83
2018-02-19T02:07:36.045Z,19.55
2018-02-19T02:10:04.502Z,18.77
2018-02-19T02:12:32.864Z,18.40
2018-02-19T02:15:01.224Z,18.50
2018-02-19T02:17:29.620Z,18.25
2018-02-19T02:19:57.219Z,18.58
2018-02-19T02:22:24.877Z,17.42
2018-02-19T02:24:52.472Z,17.05
2018-02-19T02:27:20.081Z,18.05
2018-02-19T02:29:48.467Z,19.37
2018-02-19T02:32:16.064Z,17.62
2018-02-19T02:34:43.695Z,18.83
2018-02-19T02:37:11.324Z,19.58
2018-02-19T02:39:38.921Z,19.30
2018-02-19T02:42:07.308Z,20.08
2018-02-19T02:44:34.909Z,20.00
2018-02-19T02:47:02.504Z,18.90
2018-02-19T02:49:30.133Z,21.27
2018-02-19T02:51:58.497Z,20.33
2018-02-19T02:54:26.887Z,19.35
2018-02-19T02:56:54.484Z,19.60
2018-02-19T02:59:22.108Z,19.35
2018-02-19T03:01:49.750Z,19.20
2018-02-19T03:04:17.351Z,18.35
2018-02-19T03:06:45.708Z,19.12
2018-02-19T03:09:14.096Z,18.98
2018-02-19T03:11:41.720Z,19.58
2018-02-19T03:14:10.081Z,19.05
2018-02-19T03:16:38.486Z,18.52
2018-02-19T03:19:06.088Z,19.62
2018-02-19T03:21:34.447Z,20.35
2018-02-19T03:24:02.075Z,18.73
2018-02-19T03:26:29.695Z,19.83
2018-02-19T03:28:57.299Z,18.90
2018-02-19T03:31:25.656Z,18.87
2018-02-19T03:33:54.044Z,18.50
2018-02-19T03:36:21.639Z,18.92
2018-02-19T03:38:49.274Z,19.35
2018-02-19T03:41:16.871Z,18.55
2018-02-19T03:43:45.236Z,18.60
2018-02-19T03:46:13.628Z,19.08
2018-02-19T03:48:41.233Z,19.15
2018-02-19T03:51:08.868Z,16.90
2018-02-19T03:53:36.493Z,15.98
2018-02-19T03:56:04.120Z,16.20
2018-02-19T03:58:31.723Z,14.20
2018-02-19T04:01:00.120Z,14.32
2018-02-19T04:03:27.716Z,15.60
2018-02-19T04:05:55.308Z,15.10
2018-02-19T04:08:22.933Z,14.43
2018-02-19T04:10:51.301Z,14.80
2018-02-19T04:13:19.664Z,16.33
2018-02-19T04:15:48.055Z,16.70
2018-02-19T04:18:15.684Z,17.08
2018-02-19T04:20:43.389Z,15.95
2018-02-19T04:23:11.017Z,16.60
2018-02-19T04:25:38.644Z,15.65
2018-02-19T04:28:06.239Z,14.95
2018-02-19T04:30:33.876Z,14.87
2018-02-19T04:33:01.472Z,16.58
2018-02-19T04:35:29.104Z,16.65
2018-02-19T04:37:56.704Z,16.42
2018-02-19T04:40:24.296Z,16.02
2018-02-19T04:42:55.412Z,15.25
2018-02-19T04:45:24.399Z,16.30
2018-02-19T04:47:53.009Z,15.73
2018-02-19T04:50:20.608Z,16.33
2018-02-19T04:52:49.012Z,16.27
2018-02-19T04:55:16.607Z,15.85
2018-02-19T04:57:44.204Z,19.10
2018-02-19T05:00:11.829Z,17.05
2018-02-19T05:02:39.424Z,17.77
2018-02-19T05:05:07.049Z,15.30
2018-02-19T05:07:34.676Z,17.45
2018-02-19T05:10:02.277Z,17.05
2018-02-19T05:12:29.906Z,16.60
2018-02-19T05:14:57.529Z,17.48
2018-02-19T05:17:25.164Z,16.08
2018-02-19T05:19:52.812Z,15.65
2018-02-19T05:22:20.436Z,16.12
2018-02-19T05:24:48.824Z,17.33
2018-02-19T05:27:16.444Z,16.70
2018-02-19T05:29:44.816Z,16.80
2018-02-19T05:32:12.444Z,15.77
2018-02-19T05:34:40.061Z,15.95
2018-02-19T05:37:07.680Z,16.58
2018-02-19T05:39:35.324Z,15.85
2018-02-19T05:42:02.956Z,15.93
2018-02-19T05:44:30.560Z,15.13
2018-02-19T05:46:58.160Z,16.92
2018-02-19T05:49:25.784Z,16.87
2018-02-19T05:51:54.188Z,17.33
2018-02-19T05:54:21.780Z,16.90
2018-02-19T05:56:50.144Z,18.37
2018-02-19T05:59:17.794Z,18.40
2018-02-19T06:01:46.180Z,18.00
2018-02-19T06:04:14.540Z,16.65
2018-02-19T06:06:42.164Z,16.10
2018-02-19T06:09:10.556Z,18.50
2018-02-19T06:11:38.152Z,17.17
2018-02-19T06:14:05.801Z,18.27
2018-02-19T06:16:33.404Z,16.90
2018-02-19T06:19:01.004Z,15.75
2018-02-19T06:21:28.644Z,15.45
2018-02-19T06:23:56.260Z,15.93
2018-02-19T06:26:23.861Z,18.08
2018-02-19T06:28:52.252Z,16.62
2018-02-19T06:31:19.871Z,16.55
2018-02-19T06:33:48.227Z,16.77
2018-02-19T06:36:15.848Z,18.17
2018-02-19T06:38:43.449Z,17.33
2018-02-19T06:41:11.080Z,17.12
2018-02-19T06:43:39.436Z,18.10
2018-02-19T06:46:07.808Z,17.50
2018-02-19T06:48:36.215Z,16.50
2018-02-19T06:51:03.807Z,16.90
2018-02-19T06:53:31.407Z,17.13
2018-02-19T06:55:59.082Z,16.20
2018-02-19T06:58:26.677Z,15.30
2018-02-19T07:00:54.329Z,15.00
2018-02-19T07:03:22.216Z,14.15
2018-02-19T07:05:49.856Z,13.90
2018-02-19T07:08:17.480Z,14.93
2018-02-19T07:10:45.115Z,15.30
2018-02-19T07:13:12.712Z,14.45
2018-02-19T07:15:40.307Z,16.45
2018-02-19T07:18:07.928Z,15.48
2018-02-19T07:20:36.287Z,14.77
2018-02-19T07:23:04.692Z,15.40
2018-02-19T07:25:32.285Z,14.38
2018-02-19T07:27:59.885Z,13.43
2018-02-19T07:30:27.504Z,15.43
2018-02-19T07:32:55.870Z,15.20
2018-02-19T07:35:24.257Z,14.90
2018-02-19T07:37:51.883Z,16.75
2018-02-19T07:40:20.248Z,15.18
2018-02-19T07:42:47.867Z,15.43
2018-02-19T07:45:15.489Z,15.32
2018-02-19T07:47:43.856Z,16.20
2018-02-19T07:50:12.541Z,16.80
2018-02-19T07:52:40.157Z,16.67
2018-02-19T07:55:07.803Z,15.85
2018-02-19T07:57:35.448Z,15.80
2018-02-19T08:00:03.128Z,13.60
2018-02-19T08:02:31.532Z,15.43
2018-02-19T08:04:59.132Z,13.60
2018-02-19T08:07:27.493Z,14.20
2018-02-19T08:09:55.935Z,13.65
2018-02-19T08:12:24.439Z,13.60
2018-02-19T08:14:52.098Z,14.82
2018-02-19T08:17:19.704Z,14.13
2018-02-19T08:19:47.484Z,14.52
2018-02-19T08:22:15.093Z,12.52
2018-02-19T08:24:42.738Z,13.48
2018-02-19T08:27:10.337Z,14.40
2018-02-19T08:29:37.936Z,14.55
2018-02-19T08:32:05.680Z,15.93
2018-02-19T08:34:33.288Z,15.07
2018-02-19T08:37:00.968Z,16.33
2018-02-19T08:39:28.576Z,16.08
2018-02-19T08:41:56.168Z,17.05
2018-02-19T08:44:23.792Z,16.27
2018-02-19T08:46:51.411Z,16.20
2018-02-19T08:49:19.024Z,16.80
2018-02-19T08:51:46.650Z,15.90
2018-02-19T08:54:14.251Z,14.45
2018-02-19T08:56:41.857Z,16.20
2018-02-19T08:59:09.484Z,16.17
2018-02-19T09:01:37.080Z,17.87
2018-02-19T09:04:04.676Z,16.80
2018-02-19T09:06:32.300Z,17.02
2018-02-19T09:08:59.933Z,17.05
2018-02-19T09:11:27.556Z,17.85
2018-02-19T09:13:55.189Z,16.02
2018-02-19T09:16:23.557Z,16.02
2018-02-19T09:18:51.949Z,18.83
2018-02-19T09:21:19.645Z,15.85
2018-02-19T09:23:47.243Z,18.05
2018-02-19T09:26:14.838Z,15.27
2018-02-19T09:28:42.460Z,16.33
2018-02-19T09:31:10.088Z,15.23
2018-02-19T09:33:37.707Z,14.00
2018-02-19T09:36:06.096Z,13.13
2018-02-19T09:38:33.694Z,12.48
2018-02-19T09:41:01.317Z,13.88
2018-02-19T09:43:28.971Z,14.40
2018-02-19T09:45:56.614Z,13.98
2018-02-19T09:48:24.215Z,13.40
2018-02-19T09:50:51.812Z,14.20
2018-02-19T09:53:19.444Z,13.68
2018-02-19T09:55:47.045Z,15.07
2018-02-19T09:58:15.452Z,13.50
2018-02-19T10:00:43.047Z,12.85
2018-02-19T10:03:11.417Z,14.38
2018-02-19T10:05:39.842Z,14.20
2018-02-19T10:08:07.444Z,15.35
2018-02-19T10:10:35.045Z,16.35
2018-02-19T10:13:02.685Z,15.77
2018-02-19T10:15:30.290Z,14.87
2018-02-19T10:17:57.980Z,16.30
2018-02-19T10:20:25.628Z,17.15
2018-02-19T10:22:53.236Z,17.52
2018-02-19T10:25:20.840Z,15.75
2018-02-19T10:27:49.258Z,15.82
2018-02-19T10:30:16.867Z,14.27
2018-02-19T10:32:45.235Z,16.35
2018-02-19T10:35:12.957Z,16.73
2018-02-19T10:37:40.556Z,14.93
2018-02-19T10:40:08.220Z,15.32
2018-02-19T10:42:35.825Z,15.55
2018-02-19T10:45:03.431Z,15.88
2018-02-19T10:47:31.057Z,14.98
2018-02-19T10:49:58.697Z,16.10
2018-02-19T10:52:26.300Z,16.50
2018-02-19T10:54:53.901Z,13.90
2018-02-19T10:57:22.346Z,13.98
2018-02-19T10:59:49.945Z,15.52
2018-02-19T11:02:17.550Z,16.02
2018-02-19T11:04:45.172Z,14.75
2018-02-19T11:07:12.764Z,14.73
2018-02-19T11:09:41.168Z,14.93
2018-02-19T11:12:08.769Z,16.52
2018-02-19T11:14:37.137Z,14.87
2018-02-19T11:17:04.764Z,14.15
2018-02-19T11:19:32.498Z,14.70
2018-02-19T11:22:00.131Z,15.23
2018-02-19T11:24:27.755Z,14.27
2018-02-19T11:26:55.363Z,13.60
2018-02-19T11:29:23.758Z,14.68
2018-02-19T11:31:51.357Z,14.50
2018-02-19T11:34:18.961Z,15.38
2018-02-19T11:36:46.601Z,15.32
2018-02-19T11:39:14.213Z,14.93
2018-02-19T11:41:41.886Z,15.05
2018-02-19T11:44:09.503Z,13.98
2018-02-19T11:46:37.142Z,15.90
2018-02-19T11:49:04.817Z,16.20
2018-02-19T11:51:32.430Z,14.27
2018-02-19T11:54:00.054Z,13.80
2018-02-19T11:56:27.726Z,13.30
2018-02-19T11:58:55.357Z,14.45
2018-02-19T12:01:23.068Z,14.38
2018-02-19T12:03:50.696Z,13.55
2018-02-19T12:06:19.093Z,15.50
2018-02-19T12:08:46.698Z,14.43
2018-02-19T12:11:15.117Z,15.05
2018-02-19T12:13:42.717Z,14.48
2018-02-19T12:16:11.079Z,14.35
2018-02-19T12:18:39.474Z,15.60
2018-02-19T12:21:07.095Z,16.10
2018-02-19T12:23:34.701Z,15.82
2018-02-19T12:26:02.334Z,15.32
2018-02-19T12:28:29.944Z,16.75
2018-02-19T12:30:57.573Z,15.20
2018-02-19T12:33:25.944Z,16.10
2018-02-19T12:35:54.369Z,16.52
2018-02-19T12:38:21.976Z,16.65
2018-02-19T12:40:49.581Z,15.75
2018-02-19T12:43:17.218Z,15.75
2018-02-19T12:45:44.818Z,15.65
2018-02-19T12:48:12.419Z,14.70
2018-02-19T12:50:40.052Z,16.80
2018-02-19T12:53:07.652Z,16.83
2018-02-19T12:55:35.254Z,17.00
2018-02-19T12:58:02.877Z,16.60
2018-02-19T13:00:30.517Z,16.10
2018-02-19T13:02:58.202Z,17.48
2018-02-19T13:05:26.567Z,17.25
2018-02-19T13:07:54.969Z,16.52
2018-02-19T13:10:22.565Z,17.80
2018-02-19T13:12:51.003Z,17.05
2018-02-19T13:15:18.632Z,16.17
2018-02-19T13:17:46.234Z,16.52
2018-02-19T13:20:13.829Z,18.27
2018-02-19T13:22:41.452Z,16.75
2018-02-19T13:25:09.089Z,17.12
2018-02-19T13:27:37.502Z,17.02
2018-02-19T13:30:05.127Z,18.73
2018-02-19T13:32:32.731Z,16.45
2018-02-19T13:35:01.134Z,18.33
2018-02-19T13:37:28.741Z,19.08
2018-02-19T13:39:56.374Z,18.17
2018-02-19T13:42:23.976Z,16.67
2018-02-19T13:44:51.601Z,17.20
2018-02-19T13:47:19.966Z,17.08
2018-02-19T13:49:48.344Z,18.65
2018-02-19T13:52:15.968Z,16.35
2018-02-19T13:54:44.328Z,16.70
2018-02-19T13:57:12.710Z,17.90
2018-02-19T13:59:40.332Z,16.20
2018-02-19T14:02:08.171Z,17.08
2018-02-19T14:04:35.834Z,17.75
2018-02-19T14:07:04.225Z,19.00
2018-02-19T14:09:31.826Z,18.65
2018-02-19T14:11:59.469Z,18.33
2018-02-19T14:14:27.110Z,18.48
2018-02-19T14:16:54.734Z,19.23
2018-02-19T14:19:22.380Z,17.87
2018-02-19T14:21:50.017Z,17.90
2018-02-19T14:24:17.839Z,18.58
2018-02-19T14:26:45.472Z,18.17
2018-02-19T14:29:13.093Z,19.87
2018-02-19T14:31:40.715Z,19.60
2018-02-19T14:34:08.360Z,19.27
2018-02-19T14:36:35.960Z,18.17
2018-02-19T14:39:04.333Z,19.02
2018-02-19T14:41:32.724Z,19.95
2018-02-19T14:44:00.416Z,19.23
2018-02-19T14:46:28.044Z,20.62
2018-02-19T14:48:55.657Z,18.80
2018-02-19T14:51:23.306Z,19.65
2018-02-19T14:53:50.920Z,18.15
2018-02-19T14:56:18.540Z,20.50
2018-02-19T14:58:46.152Z,19.75
2018-02-19T15:01:13.780Z,19.08
2018-02-19T15:03:42.171Z,19.30
2018-02-19T15:06:09.850Z,18.35
2018-02-19T15:08:37.485Z,19.50
2018-02-19T15:11:05.077Z,21.27
2018-02-19T15:13:33.441Z,19.33
2018-02-19T15:16:01.068Z,18.20
2018-02-19T15:18:28.673Z,18.75
2018-02-19T15:20:56.319Z,19.95
2018-02-19T15:23:23.931Z,18.52
2018-02-19T15:25:51.528Z,19.42
2018-02-19T15:28:19.310Z,18.12
2018-02-19T15:30:46.937Z,17.92
2018-02-19T15:33:14.586Z,18.17
2018-02-19T15:35:42.192Z,19.02
2018-02-19T15:38:09.840Z,18.92
2018-02-19T15:40:37.529Z,18.77
2018-02-19T15:43:05.137Z,20.10
2018-02-19T15:45:32.732Z,20.08
2018-02-19T15:48:00.360Z,19.55
2018-02-19T15:50:28.139Z,18.60
2018-02-19T15:52:56.499Z,19.77
2018-02-19T15:55:24.909Z,21.35
2018-02-19T15:57:52.511Z,19.75
2018-02-19T16:00:20.153Z,19.40
2018-02-19T16:02:47.933Z,19.48
2018-02-19T16:05:15.535Z,18.87
2018-02-19T16:07:43.145Z,19.40
2018-02-19T16:10:10.789Z,18.77
2018-02-19T16:12:38.400Z,19.12
2018-02-19T16:15:06.759Z,18.05
2018-02-19T16:17:34.385Z,19.37
2018-02-19T16:20:02.026Z,17.65
2018-02-19T16:22:29.650Z,18.50
2018-02-19T16:24:57.255Z,18.55
2018-02-19T16:27:24.904Z,19.10
2018-02-19T16:29:53.291Z,16.87
2018-02-19T16:32:20.985Z,18.35
2018-02-19T16:34:48.604Z,17.35
2018-02-19T16:37:16.205Z,18.48
2018-02-19T16:39:44.587Z,18.35
2018-02-19T16:42:12.189Z,19.10
2018-02-19T16:44:39.824Z,17.42
2018-02-19T16:47:07.421Z,18.15
2018-02-19T16:49:35.016Z,17.17
2018-02-19T16:52:02.641Z,17.85
2018-02-19T16:54:30.320Z,18.02
2018-02-19T16:56:57.944Z,17.70
2018-02-19T16:59:25.541Z,18.25
2018-02-19T17:01:53.936Z,17.77
2018-02-19T17:04:21.622Z,18.42
2018-02-19T17:06:49.262Z,17.48
2018-02-19T17:09:16.860Z,19.35
2018-02-19T17:11:44.561Z,19.67
2018-02-19T17:14:12.180Z,18.52
2018-02-19T17:16:39.804Z,18.17
2018-02-19T17:19:07.424Z,19.85
2018-02-19T17:21:35.045Z,20.17
2018-02-19T17:24:02.649Z,20.88
2018-02-19T17:26:30.244Z,19.87
2018-02-19T17:28:57.882Z,19.50
2018-02-19T17:31:25.482Z,19.92
2018-02-19T17:33:53.097Z,20.95
2018-02-19T17:36:20.715Z,19.60
2018-02-19T17:38:48.316Z,20.02
2018-02-19T17:41:15.960Z,18.45
2018-02-19T17:43:44.321Z,20.60
2018-02-19T17:46:12.712Z,21.00
2018-02-19T17:48:40.310Z,20.00
2018-02-19T17:51:08.075Z,20.45
2018-02-19T17:53:36.469Z,20.60
2018-02-19T17:56:04.084Z,20.98
2018-02-19T17:58:32.473Z,20.52
2018-02-19T18:01:00.082Z,21.17
2018-02-19T18:03:27.725Z,20.58
2018-02-19T18:05:55.317Z,23.63
2018-02-19T18:08:22.922Z,19.87
2018-02-19T18:10:50.568Z,21.35
2018-02-19T18:13:18.169Z,21.20
2018-02-19T18:15:45.764Z,20.80
2018-02-19T18:18:13.388Z,20.62
2018-02-19T18:20:40.996Z,20.55
2018-02-19T18:23:08.622Z,22.58
2018-02-19T18:25:36.992Z,21.95
2018-02-19T18:28:04.637Z,20.52
2018-02-19T18:30:32.252Z,22.92
2018-02-19T18:32:59.849Z,21.55
2018-02-19T18:35:27.486Z,23.15
2018-02-19T18:37:55.076Z,21.95
2018-02-19T18:40:22.882Z,21.08
2018-02-19T18:42:50.580Z,22.55
2018-02-19T18:45:18.204Z,22.30
2018-02-19T18:47:45.809Z,21.65
2018-02-19T18:50:13.437Z,20.10
2018-02-19T18:52:41.040Z,20.30
2018-02-19T18:55:08.694Z,19.23
2018-02-19T18:57:36.362Z,20.77
2018-02-19T19:00:04.793Z,21.50
2018-02-19T19:02:32.422Z,21.20
2018-02-19T19:05:00.021Z,21.62
2018-02-19T19:07:39.473Z,22.98
2018-02-19T19:10:19.884Z,21.83
2018-02-19T19:12:47.561Z,21.02
2018-02-19T19:15:15.926Z,24.85
2018-02-19T19:17:44.292Z,22.73
2018-02-19T19:20:12.876Z,22.77
2018-02-19T19:22:40.472Z,23.58
2018-02-19T19:25:08.064Z,23.98
2018-02-19T19:27:35.801Z,22.20
2018-02-19T19:30:04.173Z,22.35
2018-02-19T19:32:31.796Z,22.60
2018-02-19T19:34:59.396Z,22.65
2018-02-19T19:37:27.045Z,23.80
2018-02-19T19:39:54.733Z,23.65
2018-02-19T19:42:22.339Z,22.27
2018-02-19T19:44:49.965Z,19.65
2018-02-19T19:47:17.679Z,21.30
2018-02-19T19:49:45.377Z,21.67
2018-02-19T19:52:13.161Z,21.85
2018-02-19T19:54:41.548Z,20.70
2018-02-19T19:57:09.177Z,23.17
2018-02-19T19:59:36.922Z,21.98
2018-02-19T20:02:05.304Z,22.23
2018-02-19T20:04:32.933Z,21.02
2018-02-19T20:07:00.555Z,22.27
2018-02-19T20:09:28.252Z,21.25
2018-02-19T20:11:56.660Z,21.23
2018-02-19T20:14:24.267Z,21.05
2018-02-19T20:16:52.632Z,22.27
2018-02-19T20:19:21.139Z,21.17
2018-02-19T20:21:48.741Z,22.48
2018-02-19T20:24:17.101Z,20.73
2018-02-19T20:26:46.191Z,20.77
2018-02-19T20:29:13.833Z,22.02
2018-02-19T20:31:42.226Z,20.27
2018-02-19T20:34:10.223Z,21.62
2018-02-19T20:36:38.109Z,20.83
2018-02-19T20:39:06.488Z,20.35
2018-02-19T20:41:34.089Z,20.35
2018-02-19T20:44:01.839Z,20.08
2018-02-19T20:46:29.491Z,20.90
2018-02-19T20:48:57.130Z,21.55
2018-02-19T20:51:24.742Z,20.02
2018-02-19T20:53:52.344Z,21.85
2018-02-19T20:56:20.005Z,22.15
2018-02-19T20:58:48.373Z,21.40
2018-02-19T21:01:16.739Z,21.98
2018-02-19T21:03:45.131Z,20.37
2018-02-19T21:06:12.753Z,20.30
2018-02-19T21:08:40.356Z,22.40
2018-02-19T21:11:08.011Z,21.45
2018-02-19T21:13:35.618Z,21.95
2018-02-19T21:16:03.218Z,22.37
2018-02-19T21:18:30.849Z,21.23
2018-02-19T21:20:58.445Z,21.58
2018-02-19T21:23:26.068Z,20.52
2018-02-19T21:25:54.434Z,20.10
2018-02-19T21:28:22.836Z,21.17
2018-02-19T21:30:50.440Z,21.40
2018-02-19T21:33:18.080Z,21.20
2018-02-19T21:35:46.085Z,23.83
2018-02-19T21:38:14.448Z,22.95
2018-02-19T21:40:42.851Z,22.05
2018-02-19T21:43:10.512Z,21.87
2018-02-19T21:45:38.109Z,22.95
2018-02-19T21:48:06.475Z,23.52
2018-02-19T21:50:34.188Z,23.00
2018-02-19T21:53:01.792Z,22.52
2018-02-19T21:55:29.574Z,21.20
2018-02-19T21:57:57.205Z,21.55
2018-02-19T22:00:24.804Z,24.37
2018-02-19T22:02:54.375Z,22.98
2018-02-19T22:05:22.007Z,24.45
2018-02-19T22:07:49.610Z,22.90
2018-02-19T22:10:17.714Z,22.15
2018-02-19T22:12:45.318Z,24.55
2018-02-19T22:15:12.926Z,23.70
2018-02-19T22:17:40.556Z,23.30
2018-02-19T22:20:08.435Z,24.10
2018-02-19T22:22:36.842Z,23.00
2018-02-19T22:25:04.442Z,26.23
2018-02-19T22:27:32.800Z,23.40
2018-02-19T22:30:00.420Z,23.33
2018-02-19T22:32:28.024Z,25.08
2018-02-19T22:34:55.648Z,24.02
2018-02-19T22:37:24.048Z,23.20
2018-02-19T22:39:51.641Z,24.87
2018-02-19T22:42:19.243Z,24.50
2018-02-19T22:44:46.865Z,24.05
2018-02-19T22:47:15.232Z,24.67
2018-02-19T22:49:42.857Z,24.67
2018-02-19T22:52:11.220Z,26.08
2018-02-19T22:54:38.849Z,25.88
2018-02-19T22:57:06.444Z,26.55
2018-02-19T22:59:34.040Z,26.95
2018-02-19T23:02:01.685Z,24.25
2018-02-19T23:04:29.300Z,27.05
2018-02-19T23:06:56.899Z,25.55
2018-02-19T23:09:24.524Z,27.13
2018-02-19T23:11:52.120Z,24.92
2018-02-19T23:14:19.744Z,26.00
2018-02-19T23:16:48.103Z,24.27
2018-02-19T23:19:16.488Z,24.98
2018-02-19T23:21:44.152Z,25.08
2018-02-19T23:24:11.745Z,25.50
2018-02-19T23:26:39.347Z,26.08
2018-02-19T23:29:06.988Z,26.58
2018-02-19T23:31:34.580Z,24.50
2018-02-19T23:34:02.186Z,25.70
2018-02-19T23:36:29.811Z,27.45
2018-02-19T23:38:57.467Z,24.80
2018-02-19T23:41:25.056Z,27.23
2018-02-19T23:43:52.643Z,25.05
2018-02-19T23:46:21.041Z,24.48
2018-02-19T23:48:48.635Z,25.45
2018-02-19T23:51:16.232Z,26.05
2018-02-19T23:53:43.856Z,24.35
2018-02-19T23:56:11.488Z,25.05
2018-02-19T23:58:39.848Z,24.27
